sensor_id;sensor_type;location;lat;lon;timestamp;temperature;humidity
3069;DHT22;1545;51.728;8.796;2022-11-15T00:00:24;10.30;92.00
3069;DHT22;1545;51.728;8.796;2022-11-15T00:02:49;10.30;92.30
3069;DHT22;1545;51.728;8.796;2022-11-15T00:05:15;10.30;92.40
3069;DHT22;1545;51.728;8.796;2022-11-15T00:07:43;10.30;92.70
3069;DHT22;1545;51.728;8.796;2022-11-15T00:10:09;10.30;92.80
3069;DHT22;1545;51.728;8.796;2022-11-15T00:12:35;10.40;92.90
3069;DHT22;1545;51.728;8.796;2022-11-15T00:15:00;10.40;93.00
3069;DHT22;1545;51.728;8.796;2022-11-15T00:17:26;10.30;93.30
3069;DHT22;1545;51.728;8.796;2022-11-15T00:19:51;10.30;93.50
3069;DHT22;1545;51.728;8.796;2022-11-15T00:22:17;10.20;93.90
3069;DHT22;1545;51.728;8.796;2022-11-15T00:24:42;10.30;94.20
3069;DHT22;1545;51.728;8.796;2022-11-15T00:27:08;10.30;94.40
3069;DHT22;1545;51.728;8.796;2022-11-15T00:29:34;10.30;94.60
3069;DHT22;1545;51.728;8.796;2022-11-15T00:31:59;10.30;94.70
3069;DHT22;1545;51.728;8.796;2022-11-15T00:34:25;10.40;94.70
3069;DHT22;1545;51.728;8.796;2022-11-15T00:36:50;10.40;94.90
3069;DHT22;1545;51.728;8.796;2022-11-15T00:39:16;10.50;94.90
3069;DHT22;1545;51.728;8.796;2022-11-15T00:41:41;10.50;94.80
3069;DHT22;1545;51.728;8.796;2022-11-15T00:44:07;10.60;94.90
3069;DHT22;1545;51.728;8.796;2022-11-15T00:46:33;10.60;94.60
3069;DHT22;1545;51.728;8.796;2022-11-15T00:48:58;10.70;94.60
3069;DHT22;1545;51.728;8.796;2022-11-15T00:51:24;10.70;94.50
3069;DHT22;1545;51.728;8.796;2022-11-15T00:53:49;10.80;94.40
3069;DHT22;1545;51.728;8.796;2022-11-15T00:56:15;10.80;94.50
3069;DHT22;1545;51.728;8.796;2022-11-15T00:58:40;10.80;94.70
3069;DHT22;1545;51.728;8.796;2022-11-15T01:01:11;10.70;94.90
3069;DHT22;1545;51.728;8.796;2022-11-15T01:03:38;10.70;95.10
3069;DHT22;1545;51.728;8.796;2022-11-15T01:06:04;10.70;95.20
3069;DHT22;1545;51.728;8.796;2022-11-15T01:08:30;10.60;95.50
3069;DHT22;1545;51.728;8.796;2022-11-15T01:11:04;10.50;95.80
3069;DHT22;1545;51.728;8.796;2022-11-15T01:13:34;10.40;96.10
3069;DHT22;1545;51.728;8.796;2022-11-15T01:16:13;10.40;96.40
3069;DHT22;1545;51.728;8.796;2022-11-15T01:18:39;10.40;96.70
3069;DHT22;1545;51.728;8.796;2022-11-15T01:21:07;10.40;96.60
3069;DHT22;1545;51.728;8.796;2022-11-15T01:23:33;10.40;96.90
3069;DHT22;1545;51.728;8.796;2022-11-15T01:26:04;10.40;96.90
3069;DHT22;1545;51.728;8.796;2022-11-15T01:28:31;10.40;97.10
3069;DHT22;1545;51.728;8.796;2022-11-15T01:30:59;10.40;97.30
3069;DHT22;1545;51.728;8.796;2022-11-15T01:33:24;10.30;97.50
3069;DHT22;1545;51.728;8.796;2022-11-15T01:35:50;10.20;97.70
3069;DHT22;1545;51.728;8.796;2022-11-15T01:38:15;10.20;97.90
3069;DHT22;1545;51.728;8.796;2022-11-15T01:40:41;10.20;98.10
3069;DHT22;1545;51.728;8.796;2022-11-15T01:45:49;10.00;98.70
3069;DHT22;1545;51.728;8.796;2022-11-15T01:48:16;9.90;98.80
3069;DHT22;1545;51.728;8.796;2022-11-15T01:50:42;9.90;98.80
3069;DHT22;1545;51.728;8.796;2022-11-15T01:53:07;9.90;98.80
3069;DHT22;1545;51.728;8.796;2022-11-15T01:55:33;9.80;98.80
3069;DHT22;1545;51.728;8.796;2022-11-15T01:58:01;9.80;98.80
3069;DHT22;1545;51.728;8.796;2022-11-15T02:00:29;9.80;98.80
3069;DHT22;1545;51.728;8.796;2022-11-15T02:02:54;9.70;98.80
3069;DHT22;1545;51.728;8.796;2022-11-15T02:05:20;9.70;98.80
3069;DHT22;1545;51.728;8.796;2022-11-15T02:07:47;9.70;98.80
3069;DHT22;1545;51.728;8.796;2022-11-15T02:10:18;9.70;98.80
3069;DHT22;1545;51.728;8.796;2022-11-15T02:12:44;9.80;98.80
3069;DHT22;1545;51.728;8.796;2022-11-15T02:15:11;9.90;98.80
3069;DHT22;1545;51.728;8.796;2022-11-15T02:20:33;9.90;98.80
3069;DHT22;1545;51.728;8.796;2022-11-15T02:29:05;9.90;98.80
3069;DHT22;1545;51.728;8.796;2022-11-15T02:31:53;9.90;98.80
3069;DHT22;1545;51.728;8.796;2022-11-15T02:34:46;9.90;98.80
3069;DHT22;1545;51.728;8.796;2022-11-15T02:37:16;9.90;98.80
3069;DHT22;1545;51.728;8.796;2022-11-15T02:39:51;9.90;98.80
3069;DHT22;1545;51.728;8.796;2022-11-15T02:42:25;9.90;98.80
3069;DHT22;1545;51.728;8.796;2022-11-15T02:45:17;9.90;98.80
3069;DHT22;1545;51.728;8.796;2022-11-15T02:47:46;9.90;98.80
3069;DHT22;1545;51.728;8.796;2022-11-15T02:50:18;9.90;98.80
3069;DHT22;1545;51.728;8.796;2022-11-15T02:52:51;9.90;98.80
3069;DHT22;1545;51.728;8.796;2022-11-15T02:55:37;9.90;98.80
3069;DHT22;1545;51.728;8.796;2022-11-15T02:58:19;10.00;98.80
3069;DHT22;1545;51.728;8.796;2022-11-15T03:01:00;10.00;98.80
3069;DHT22;1545;51.728;8.796;2022-11-15T03:03:40;10.00;98.80
3069;DHT22;1545;51.728;8.796;2022-11-15T03:11:18;9.70;98.80
3069;DHT22;1545;51.728;8.796;2022-11-15T03:13:50;9.70;98.80
3069;DHT22;1545;51.728;8.796;2022-11-15T03:16:38;9.70;98.80
3069;DHT22;1545;51.728;8.796;2022-11-15T03:19:26;9.60;98.80
3069;DHT22;1545;51.728;8.796;2022-11-15T03:21:55;9.60;98.80
3069;DHT22;1545;51.728;8.796;2022-11-15T03:24:23;9.60;98.80
3069;DHT22;1545;51.728;8.796;2022-11-15T03:26:51;9.60;98.80
3069;DHT22;1545;51.728;8.796;2022-11-15T03:29:24;9.80;98.80
3069;DHT22;1545;51.728;8.796;2022-11-15T03:31:55;9.90;98.80
3069;DHT22;1545;51.728;8.796;2022-11-15T03:34:35;10.00;98.80
3069;DHT22;1545;51.728;8.796;2022-11-15T03:37:02;10.00;98.80
3069;DHT22;1545;51.728;8.796;2022-11-15T03:39:29;10.00;98.80
3069;DHT22;1545;51.728;8.796;2022-11-15T03:47:11;9.90;98.80
3069;DHT22;1545;51.728;8.796;2022-11-15T03:49:44;9.90;98.80
3069;DHT22;1545;51.728;8.796;2022-11-15T03:52:10;9.90;98.80
3069;DHT22;1545;51.728;8.796;2022-11-15T03:54:36;10.00;98.80
3069;DHT22;1545;51.728;8.796;2022-11-15T03:57:02;10.00;98.80
3069;DHT22;1545;51.728;8.796;2022-11-15T03:59:28;10.10;98.80
3069;DHT22;1545;51.728;8.796;2022-11-15T04:01:53;10.20;98.80
3069;DHT22;1545;51.728;8.796;2022-11-15T04:04:19;10.20;98.80
3069;DHT22;1545;51.728;8.796;2022-11-15T04:06:44;10.20;98.80
3069;DHT22;1545;51.728;8.796;2022-11-15T04:09:10;10.30;98.60
3069;DHT22;1545;51.728;8.796;2022-11-15T04:11:35;10.20;98.40
3069;DHT22;1545;51.728;8.796;2022-11-15T04:14:01;10.20;98.40
3069;DHT22;1545;51.728;8.796;2022-11-15T04:16:26;10.20;98.50
3069;DHT22;1545;51.728;8.796;2022-11-15T04:18:52;10.20;98.60
3069;DHT22;1545;51.728;8.796;2022-11-15T04:21:37;10.20;98.50
3069;DHT22;1545;51.728;8.796;2022-11-15T04:24:22;10.20;98.60
3069;DHT22;1545;51.728;8.796;2022-11-15T04:26:47;10.20;98.40
3069;DHT22;1545;51.728;8.796;2022-11-15T04:29:13;10.20;98.40
3069;DHT22;1545;51.728;8.796;2022-11-15T04:31:57;10.30;98.50
3069;DHT22;1545;51.728;8.796;2022-11-15T04:34:22;10.30;98.50
3069;DHT22;1545;51.728;8.796;2022-11-15T04:36:48;10.30;98.30
3069;DHT22;1545;51.728;8.796;2022-11-15T04:39:32;10.30;98.40
3069;DHT22;1545;51.728;8.796;2022-11-15T04:41:57;10.40;98.40
3069;DHT22;1545;51.728;8.796;2022-11-15T04:44:23;10.40;98.40
3069;DHT22;1545;51.728;8.796;2022-11-15T04:46:48;10.50;98.10
3069;DHT22;1545;51.728;8.796;2022-11-15T04:49:14;10.50;98.20
3069;DHT22;1545;51.728;8.796;2022-11-15T04:51:39;10.50;98.10
3069;DHT22;1545;51.728;8.796;2022-11-15T04:54:05;10.60;98.10
3069;DHT22;1545;51.728;8.796;2022-11-15T04:56:31;10.60;98.00
3069;DHT22;1545;51.728;8.796;2022-11-15T04:58:56;10.70;97.70
3069;DHT22;1545;51.728;8.796;2022-11-15T05:01:22;10.80;97.50
3069;DHT22;1545;51.728;8.796;2022-11-15T05:03:47;10.80;97.50
3069;DHT22;1545;51.728;8.796;2022-11-15T05:06:31;10.80;97.50
3069;DHT22;1545;51.728;8.796;2022-11-15T05:08:57;10.80;97.50
3069;DHT22;1545;51.728;8.796;2022-11-15T05:11:23;10.80;97.60
3069;DHT22;1545;51.728;8.796;2022-11-15T05:13:49;10.90;97.70
3069;DHT22;1545;51.728;8.796;2022-11-15T05:16:15;10.90;97.40
3069;DHT22;1545;51.728;8.796;2022-11-15T05:18:41;10.90;97.30
3069;DHT22;1545;51.728;8.796;2022-11-15T05:21:08;10.90;97.10
3069;DHT22;1545;51.728;8.796;2022-11-15T05:23:34;10.90;97.20
3069;DHT22;1545;51.728;8.796;2022-11-15T05:26:00;10.90;97.20
3069;DHT22;1545;51.728;8.796;2022-11-15T05:28:26;10.90;97.20
3069;DHT22;1545;51.728;8.796;2022-11-15T05:30:52;10.90;97.20
3069;DHT22;1545;51.728;8.796;2022-11-15T05:33:17;10.90;97.20
3069;DHT22;1545;51.728;8.796;2022-11-15T05:35:46;10.80;97.20
3069;DHT22;1545;51.728;8.796;2022-11-15T05:38:14;10.80;97.50
3069;DHT22;1545;51.728;8.796;2022-11-15T05:40:40;10.80;97.60
3069;DHT22;1545;51.728;8.796;2022-11-15T05:43:06;10.80;97.50
3069;DHT22;1545;51.728;8.796;2022-11-15T05:45:32;10.80;97.70
3069;DHT22;1545;51.728;8.796;2022-11-15T05:48:01;10.90;97.10
3069;DHT22;1545;51.728;8.796;2022-11-15T05:50:29;10.90;96.80
3069;DHT22;1545;51.728;8.796;2022-11-15T05:52:55;10.90;96.60
3069;DHT22;1545;51.728;8.796;2022-11-15T05:55:21;10.80;96.70
3069;DHT22;1545;51.728;8.796;2022-11-15T05:57:46;10.80;96.70
3069;DHT22;1545;51.728;8.796;2022-11-15T06:00:12;10.80;96.60
3069;DHT22;1545;51.728;8.796;2022-11-15T06:02:38;10.70;96.80
3069;DHT22;1545;51.728;8.796;2022-11-15T06:05:04;10.80;96.70
3069;DHT22;1545;51.728;8.796;2022-11-15T06:07:30;10.80;96.40
3069;DHT22;1545;51.728;8.796;2022-11-15T06:09:55;10.80;96.20
3069;DHT22;1545;51.728;8.796;2022-11-15T06:12:21;10.90;95.80
3069;DHT22;1545;51.728;8.796;2022-11-15T06:14:47;10.90;95.60
3069;DHT22;1545;51.728;8.796;2022-11-15T06:17:12;10.90;95.60
3069;DHT22;1545;51.728;8.796;2022-11-15T06:19:38;10.80;95.80
3069;DHT22;1545;51.728;8.796;2022-11-15T06:22:03;10.80;96.00
3069;DHT22;1545;51.728;8.796;2022-11-15T06:24:29;10.80;96.00
3069;DHT22;1545;51.728;8.796;2022-11-15T06:26:54;10.80;95.90
3069;DHT22;1545;51.728;8.796;2022-11-15T06:29:20;10.80;96.00
3069;DHT22;1545;51.728;8.796;2022-11-15T06:31:45;10.80;95.80
3069;DHT22;1545;51.728;8.796;2022-11-15T06:34:11;10.90;95.70
3069;DHT22;1545;51.728;8.796;2022-11-15T06:36:37;10.80;95.70
3069;DHT22;1545;51.728;8.796;2022-11-15T06:39:05;10.80;95.70
3069;DHT22;1545;51.728;8.796;2022-11-15T06:41:34;10.80;95.90
3069;DHT22;1545;51.728;8.796;2022-11-15T06:44:00;10.80;95.80
3069;DHT22;1545;51.728;8.796;2022-11-15T06:46:26;10.80;95.80
3069;DHT22;1545;51.728;8.796;2022-11-15T06:48:52;10.70;95.90
3069;DHT22;1545;51.728;8.796;2022-11-15T06:51:18;10.70;95.90
3069;DHT22;1545;51.728;8.796;2022-11-15T06:53:44;10.60;96.10
3069;DHT22;1545;51.728;8.796;2022-11-15T06:56:09;10.60;96.40
3069;DHT22;1545;51.728;8.796;2022-11-15T06:58:35;10.60;96.70
3069;DHT22;1545;51.728;8.796;2022-11-15T07:01:03;10.60;96.80
3069;DHT22;1545;51.728;8.796;2022-11-15T07:03:29;10.50;96.70
3069;DHT22;1545;51.728;8.796;2022-11-15T07:05:56;10.50;96.80
3069;DHT22;1545;51.728;8.796;2022-11-15T07:08:23;10.50;96.90
3069;DHT22;1545;51.728;8.796;2022-11-15T07:10:49;10.50;97.20
3069;DHT22;1545;51.728;8.796;2022-11-15T07:13:15;10.50;97.00
3069;DHT22;1545;51.728;8.796;2022-11-15T07:15:40;10.50;97.20
3069;DHT22;1545;51.728;8.796;2022-11-15T07:18:06;10.70;96.90
3069;DHT22;1545;51.728;8.796;2022-11-15T07:20:31;10.70;96.50
3069;DHT22;1545;51.728;8.796;2022-11-15T07:23:04;10.80;96.40
3069;DHT22;1545;51.728;8.796;2022-11-15T07:25:30;10.70;96.40
3069;DHT22;1545;51.728;8.796;2022-11-15T07:27:57;10.70;96.70
3069;DHT22;1545;51.728;8.796;2022-11-15T07:30:24;10.80;96.70
3069;DHT22;1545;51.728;8.796;2022-11-15T07:32:57;10.90;96.50
3069;DHT22;1545;51.728;8.796;2022-11-15T07:35:24;11.00;95.90
3069;DHT22;1545;51.728;8.796;2022-11-15T07:37:59;11.20;95.60
3069;DHT22;1545;51.728;8.796;2022-11-15T07:40:30;11.30;95.20
3069;DHT22;1545;51.728;8.796;2022-11-15T07:43:05;11.50;94.50
3069;DHT22;1545;51.728;8.796;2022-11-15T07:45:31;11.70;93.70
3069;DHT22;1545;51.728;8.796;2022-11-15T07:47:59;11.90;93.30
3069;DHT22;1545;51.728;8.796;2022-11-15T07:50:25;12.10;92.40
3069;DHT22;1545;51.728;8.796;2022-11-15T07:52:58;12.30;91.60
3069;DHT22;1545;51.728;8.796;2022-11-15T07:55:25;12.50;90.50
3069;DHT22;1545;51.728;8.796;2022-11-15T07:57:52;12.60;90.20
3069;DHT22;1545;51.728;8.796;2022-11-15T08:00:18;12.70;89.80
3069;DHT22;1545;51.728;8.796;2022-11-15T08:02:44;12.80;89.00
3069;DHT22;1545;51.728;8.796;2022-11-15T08:05:10;12.80;88.50
3069;DHT22;1545;51.728;8.796;2022-11-15T08:07:35;12.80;88.50
3069;DHT22;1545;51.728;8.796;2022-11-15T08:10:01;12.70;89.00
3069;DHT22;1545;51.728;8.796;2022-11-15T08:12:29;12.70;89.10
3069;DHT22;1545;51.728;8.796;2022-11-15T08:14:55;12.70;89.20
3069;DHT22;1545;51.728;8.796;2022-11-15T08:17:22;12.70;89.20
3069;DHT22;1545;51.728;8.796;2022-11-15T08:19:48;12.70;89.50
3069;DHT22;1545;51.728;8.796;2022-11-15T08:22:13;12.60;89.60
3069;DHT22;1545;51.728;8.796;2022-11-15T08:24:39;12.50;89.80
3069;DHT22;1545;51.728;8.796;2022-11-15T08:27:05;12.40;90.10
3069;DHT22;1545;51.728;8.796;2022-11-15T08:29:45;12.30;90.30
3069;DHT22;1545;51.728;8.796;2022-11-15T08:32:11;12.30;90.50
3069;DHT22;1545;51.728;8.796;2022-11-15T08:34:38;12.30;90.50
3069;DHT22;1545;51.728;8.796;2022-11-15T08:37:04;12.30;90.10
3069;DHT22;1545;51.728;8.796;2022-11-15T08:39:30;12.30;90.10
3069;DHT22;1545;51.728;8.796;2022-11-15T08:41:55;12.30;90.30
3069;DHT22;1545;51.728;8.796;2022-11-15T08:44:21;12.40;89.90
3069;DHT22;1545;51.728;8.796;2022-11-15T08:46:47;12.40;89.90
3069;DHT22;1545;51.728;8.796;2022-11-15T08:49:12;12.50;89.90
3069;DHT22;1545;51.728;8.796;2022-11-15T08:51:38;12.50;89.50
3069;DHT22;1545;51.728;8.796;2022-11-15T08:54:04;12.60;89.40
3069;DHT22;1545;51.728;8.796;2022-11-15T08:56:30;12.80;88.90
3069;DHT22;1545;51.728;8.796;2022-11-15T08:58:56;13.00;88.20
3069;DHT22;1545;51.728;8.796;2022-11-15T09:01:22;13.20;87.60
3069;DHT22;1545;51.728;8.796;2022-11-15T09:03:48;13.30;87.40
3069;DHT22;1545;51.728;8.796;2022-11-15T09:06:13;13.40;87.50
3069;DHT22;1545;51.728;8.796;2022-11-15T09:08:39;13.50;86.10
3069;DHT22;1545;51.728;8.796;2022-11-15T09:11:08;13.50;86.10
3069;DHT22;1545;51.728;8.796;2022-11-15T09:13:35;13.50;86.10
3069;DHT22;1545;51.728;8.796;2022-11-15T09:16:03;13.50;85.70
3069;DHT22;1545;51.728;8.796;2022-11-15T09:18:28;13.50;85.70
3069;DHT22;1545;51.728;8.796;2022-11-15T09:20:58;13.40;85.70
3069;DHT22;1545;51.728;8.796;2022-11-15T09:23:24;13.40;85.80
3069;DHT22;1545;51.728;8.796;2022-11-15T09:25:50;13.40;85.70
3069;DHT22;1545;51.728;8.796;2022-11-15T09:28:16;13.40;85.60
3069;DHT22;1545;51.728;8.796;2022-11-15T09:30:42;13.40;85.30
3069;DHT22;1545;51.728;8.796;2022-11-15T09:33:11;13.50;85.10
3069;DHT22;1545;51.728;8.796;2022-11-15T09:35:37;13.50;85.00
3069;DHT22;1545;51.728;8.796;2022-11-15T09:38:04;13.50;85.40
3069;DHT22;1545;51.728;8.796;2022-11-15T09:40:31;13.60;85.00
3069;DHT22;1545;51.728;8.796;2022-11-15T09:43:16;13.50;84.70
3069;DHT22;1545;51.728;8.796;2022-11-15T09:46:26;13.60;84.80
3069;DHT22;1545;51.728;8.796;2022-11-15T09:49:03;13.60;85.10
3069;DHT22;1545;51.728;8.796;2022-11-15T09:51:33;13.70;85.00
3069;DHT22;1545;51.728;8.796;2022-11-15T09:56:31;13.90;83.40
3069;DHT22;1545;51.728;8.796;2022-11-15T09:59:38;14.00;83.00
3069;DHT22;1545;51.728;8.796;2022-11-15T10:02:33;14.20;82.70
3069;DHT22;1545;51.728;8.796;2022-11-15T10:05:02;14.40;82.50
3069;DHT22;1545;51.728;8.796;2022-11-15T10:07:31;14.60;80.40
3069;DHT22;1545;51.728;8.796;2022-11-15T10:10:17;14.70;80.00
3069;DHT22;1545;51.728;8.796;2022-11-15T10:12:48;14.80;79.60
3069;DHT22;1545;51.728;8.796;2022-11-15T10:15:16;14.80;78.70
3069;DHT22;1545;51.728;8.796;2022-11-15T10:18:15;14.90;78.80
3069;DHT22;1545;51.728;8.796;2022-11-15T10:20:58;14.80;78.60
3069;DHT22;1545;51.728;8.796;2022-11-15T10:23:24;14.80;78.40
3069;DHT22;1545;51.728;8.796;2022-11-15T10:26:00;14.80;78.30
3069;DHT22;1545;51.728;8.796;2022-11-15T10:28:29;14.80;78.00
3069;DHT22;1545;51.728;8.796;2022-11-15T10:30:57;14.80;77.40
3069;DHT22;1545;51.728;8.796;2022-11-15T10:33:29;14.70;77.80
3069;DHT22;1545;51.728;8.796;2022-11-15T10:38:53;14.80;77.90
3069;DHT22;1545;51.728;8.796;2022-11-15T10:43:45;14.90;78.00
3069;DHT22;1545;51.728;8.796;2022-11-15T10:46:26;14.90;77.70
3069;DHT22;1545;51.728;8.796;2022-11-15T10:48:52;14.90;77.40
3069;DHT22;1545;51.728;8.796;2022-11-15T10:51:24;14.90;77.20
3069;DHT22;1545;51.728;8.796;2022-11-15T10:53:57;15.00;76.80
3069;DHT22;1545;51.728;8.796;2022-11-15T10:56:25;15.00;77.30
3069;DHT22;1545;51.728;8.796;2022-11-15T10:58:56;15.10;77.70
3069;DHT22;1545;51.728;8.796;2022-11-15T11:01:24;15.20;78.00
3069;DHT22;1545;51.728;8.796;2022-11-15T11:04:06;15.30;77.80
3069;DHT22;1545;51.728;8.796;2022-11-15T11:06:56;15.50;78.00
3069;DHT22;1545;51.728;8.796;2022-11-15T11:09:30;15.50;77.80
3069;DHT22;1545;51.728;8.796;2022-11-15T11:11:56;15.60;77.80
3069;DHT22;1545;51.728;8.796;2022-11-15T11:14:25;15.60;77.70
3069;DHT22;1545;51.728;8.796;2022-11-15T11:17:16;15.50;78.00
3069;DHT22;1545;51.728;8.796;2022-11-15T11:20:20;15.50;77.80
3069;DHT22;1545;51.728;8.796;2022-11-15T11:23:04;15.50;77.90
3069;DHT22;1545;51.728;8.796;2022-11-15T11:26:11;15.50;78.10
3069;DHT22;1545;51.728;8.796;2022-11-15T11:31:53;15.50;78.10
3069;DHT22;1545;51.728;8.796;2022-11-15T11:37:14;15.50;78.30
3069;DHT22;1545;51.728;8.796;2022-11-15T11:40:16;15.50;78.60
3069;DHT22;1545;51.728;8.796;2022-11-15T11:45:47;15.50;79.20
3069;DHT22;1545;51.728;8.796;2022-11-15T11:53:42;15.60;79.40
3069;DHT22;1545;51.728;8.796;2022-11-15T11:56:37;15.60;79.70
3069;DHT22;1545;51.728;8.796;2022-11-15T11:59:36;15.60;79.90
3069;DHT22;1545;51.728;8.796;2022-11-15T12:02:21;15.60;79.70
3069;DHT22;1545;51.728;8.796;2022-11-15T12:04:52;15.70;80.00
3069;DHT22;1545;51.728;8.796;2022-11-15T12:07:24;15.70;80.10
3069;DHT22;1545;51.728;8.796;2022-11-15T12:15:29;15.30;80.50
3069;DHT22;1545;51.728;8.796;2022-11-15T12:18:00;15.30;80.70
3069;DHT22;1545;51.728;8.796;2022-11-15T12:20:42;15.30;80.40
3069;DHT22;1545;51.728;8.796;2022-11-15T12:23:20;15.20;80.70
3069;DHT22;1545;51.728;8.796;2022-11-15T12:26:05;15.10;80.50
3069;DHT22;1545;51.728;8.796;2022-11-15T12:28:53;15.10;80.80
3069;DHT22;1545;51.728;8.796;2022-11-15T12:31:40;15.20;80.80
3069;DHT22;1545;51.728;8.796;2022-11-15T12:36:53;15.30;80.10
3069;DHT22;1545;51.728;8.796;2022-11-15T12:39:19;15.20;80.10
3069;DHT22;1545;51.728;8.796;2022-11-15T12:52:03;15.40;80.00
3069;DHT22;1545;51.728;8.796;2022-11-15T13:02:25;15.80;78.90
3069;DHT22;1545;51.728;8.796;2022-11-15T13:04:54;15.90;78.10
3069;DHT22;1545;51.728;8.796;2022-11-15T13:10:28;15.80;77.10
3069;DHT22;1545;51.728;8.796;2022-11-15T13:12:48;15.90;77.20
3069;DHT22;1545;51.728;8.796;2022-11-15T13:15:35;15.90;77.20
3069;DHT22;1545;51.728;8.796;2022-11-15T13:18:37;15.90;77.00
3069;DHT22;1545;51.728;8.796;2022-11-15T13:21:17;15.90;77.10
3069;DHT22;1545;51.728;8.796;2022-11-15T13:24:03;15.80;77.30
3069;DHT22;1545;51.728;8.796;2022-11-15T13:26:29;15.70;77.50
3069;DHT22;1545;51.728;8.796;2022-11-15T13:28:56;15.60;77.50
3069;DHT22;1545;51.728;8.796;2022-11-15T13:31:29;15.50;77.80
3069;DHT22;1545;51.728;8.796;2022-11-15T13:36:53;15.60;78.00
3069;DHT22;1545;51.728;8.796;2022-11-15T13:39:30;15.50;78.10
3069;DHT22;1545;51.728;8.796;2022-11-15T13:41:57;15.50;78.10
3069;DHT22;1545;51.728;8.796;2022-11-15T13:44:29;15.50;78.20
3069;DHT22;1545;51.728;8.796;2022-11-15T13:47:13;15.50;78.10
3069;DHT22;1545;51.728;8.796;2022-11-15T13:49:39;15.40;78.30
3069;DHT22;1545;51.728;8.796;2022-11-15T13:52:08;15.40;78.50
3069;DHT22;1545;51.728;8.796;2022-11-15T13:54:35;15.40;78.60
3069;DHT22;1545;51.728;8.796;2022-11-15T13:57:14;15.40;78.10
3069;DHT22;1545;51.728;8.796;2022-11-15T13:59:47;15.40;77.80
3069;DHT22;1545;51.728;8.796;2022-11-15T14:02:18;15.50;77.70
3069;DHT22;1545;51.728;8.796;2022-11-15T14:04:49;15.50;77.00
3069;DHT22;1545;51.728;8.796;2022-11-15T14:07:19;15.60;77.30
3069;DHT22;1545;51.728;8.796;2022-11-15T14:09:45;15.60;76.60
3069;DHT22;1545;51.728;8.796;2022-11-15T14:14:51;15.70;76.40
3069;DHT22;1545;51.728;8.796;2022-11-15T14:17:37;15.70;76.20
3069;DHT22;1545;51.728;8.796;2022-11-15T14:20:24;15.60;76.30
3069;DHT22;1545;51.728;8.796;2022-11-15T14:22:56;15.60;76.10
3069;DHT22;1545;51.728;8.796;2022-11-15T14:25:24;15.70;76.20
3069;DHT22;1545;51.728;8.796;2022-11-15T14:28:10;15.70;75.80
3069;DHT22;1545;51.728;8.796;2022-11-15T14:30:36;15.70;75.70
3069;DHT22;1545;51.728;8.796;2022-11-15T14:33:11;15.70;75.60
3069;DHT22;1545;51.728;8.796;2022-11-15T14:35:42;15.60;75.70
3069;DHT22;1545;51.728;8.796;2022-11-15T14:38:08;15.60;75.90
3069;DHT22;1545;51.728;8.796;2022-11-15T14:40:33;15.50;76.20
3069;DHT22;1545;51.728;8.796;2022-11-15T14:42:59;15.50;76.30
3069;DHT22;1545;51.728;8.796;2022-11-15T14:45:27;15.40;76.70
3069;DHT22;1545;51.728;8.796;2022-11-15T14:47:52;15.40;76.90
3069;DHT22;1545;51.728;8.796;2022-11-15T14:50:20;15.30;76.90
3069;DHT22;1545;51.728;8.796;2022-11-15T14:52:46;15.30;77.40
3069;DHT22;1545;51.728;8.796;2022-11-15T14:55:17;15.20;78.00
3069;DHT22;1545;51.728;8.796;2022-11-15T14:57:44;15.10;78.60
3069;DHT22;1545;51.728;8.796;2022-11-15T15:00:11;15.00;79.00
3069;DHT22;1545;51.728;8.796;2022-11-15T15:02:36;14.80;79.30
3069;DHT22;1545;51.728;8.796;2022-11-15T15:05:15;14.80;79.60
3069;DHT22;1545;51.728;8.796;2022-11-15T15:07:41;14.70;79.70
3069;DHT22;1545;51.728;8.796;2022-11-15T15:10:08;14.60;80.10
3069;DHT22;1545;51.728;8.796;2022-11-15T15:12:33;14.50;80.20
3069;DHT22;1545;51.728;8.796;2022-11-15T15:14:59;14.40;80.20
3069;DHT22;1545;51.728;8.796;2022-11-15T15:17:24;14.30;80.40
3069;DHT22;1545;51.728;8.796;2022-11-15T15:19:50;14.20;80.40
3069;DHT22;1545;51.728;8.796;2022-11-15T15:22:17;14.20;80.40
3069;DHT22;1545;51.728;8.796;2022-11-15T15:24:45;14.10;80.50
3069;DHT22;1545;51.728;8.796;2022-11-15T15:27:11;14.00;80.70
3069;DHT22;1545;51.728;8.796;2022-11-15T15:29:37;14.00;80.90
3069;DHT22;1545;51.728;8.796;2022-11-15T15:32:03;14.10;80.90
3069;DHT22;1545;51.728;8.796;2022-11-15T15:34:29;14.00;81.00
3069;DHT22;1545;51.728;8.796;2022-11-15T15:39:48;13.90;81.30
3069;DHT22;1545;51.728;8.796;2022-11-15T15:42:14;13.90;81.30
3069;DHT22;1545;51.728;8.796;2022-11-15T15:44:40;13.80;81.30
3069;DHT22;1545;51.728;8.796;2022-11-15T15:47:16;13.80;81.40
3069;DHT22;1545;51.728;8.796;2022-11-15T15:49:42;13.80;81.50
3069;DHT22;1545;51.728;8.796;2022-11-15T15:52:08;13.70;81.50
3069;DHT22;1545;51.728;8.796;2022-11-15T15:54:33;13.70;81.50
3069;DHT22;1545;51.728;8.796;2022-11-15T15:56:59;13.70;81.60
3069;DHT22;1545;51.728;8.796;2022-11-15T15:59:24;13.70;81.40
3069;DHT22;1545;51.728;8.796;2022-11-15T16:01:50;13.70;81.50
3069;DHT22;1545;51.728;8.796;2022-11-15T16:04:16;13.60;81.60
3069;DHT22;1545;51.728;8.796;2022-11-15T16:06:42;13.60;81.60
3069;DHT22;1545;51.728;8.796;2022-11-15T16:09:14;13.60;81.60
3069;DHT22;1545;51.728;8.796;2022-11-15T16:11:40;13.50;82.00
3069;DHT22;1545;51.728;8.796;2022-11-15T16:14:07;13.50;82.10
3069;DHT22;1545;51.728;8.796;2022-11-15T16:16:34;13.40;82.30
3069;DHT22;1545;51.728;8.796;2022-11-15T16:18:59;13.40;82.70
3069;DHT22;1545;51.728;8.796;2022-11-15T16:21:26;13.40;82.90
3069;DHT22;1545;51.728;8.796;2022-11-15T16:23:52;13.40;83.10
3069;DHT22;1545;51.728;8.796;2022-11-15T16:28:48;13.30;83.50
3069;DHT22;1545;51.728;8.796;2022-11-15T16:31:13;13.30;83.50
3069;DHT22;1545;51.728;8.796;2022-11-15T16:33:40;13.30;83.70
3069;DHT22;1545;51.728;8.796;2022-11-15T16:36:13;13.30;83.70
3069;DHT22;1545;51.728;8.796;2022-11-15T16:38:40;13.30;83.90
3069;DHT22;1545;51.728;8.796;2022-11-15T16:41:06;13.20;84.00
3069;DHT22;1545;51.728;8.796;2022-11-15T16:43:31;13.20;84.10
3069;DHT22;1545;51.728;8.796;2022-11-15T16:45:57;13.20;84.20
3069;DHT22;1545;51.728;8.796;2022-11-15T16:48:26;13.10;84.30
3069;DHT22;1545;51.728;8.796;2022-11-15T16:50:56;13.10;84.50
3069;DHT22;1545;51.728;8.796;2022-11-15T16:53:22;13.10;84.70
3069;DHT22;1545;51.728;8.796;2022-11-15T16:55:48;13.10;84.80
3069;DHT22;1545;51.728;8.796;2022-11-15T16:58:14;13.10;84.90
3069;DHT22;1545;51.728;8.796;2022-11-15T17:00:39;13.10;85.00
3069;DHT22;1545;51.728;8.796;2022-11-15T17:03:05;13.10;85.00
3069;DHT22;1545;51.728;8.796;2022-11-15T17:05:31;13.10;85.10
3069;DHT22;1545;51.728;8.796;2022-11-15T17:07:56;13.20;85.10
3069;DHT22;1545;51.728;8.796;2022-11-15T17:10:23;13.20;85.20
3069;DHT22;1545;51.728;8.796;2022-11-15T17:12:50;13.20;85.30
3069;DHT22;1545;51.728;8.796;2022-11-15T17:15:16;13.30;85.30
3069;DHT22;1545;51.728;8.796;2022-11-15T17:17:42;13.30;85.40
3069;DHT22;1545;51.728;8.796;2022-11-15T17:20:14;13.20;85.50
3069;DHT22;1545;51.728;8.796;2022-11-15T17:22:40;13.30;85.40
3069;DHT22;1545;51.728;8.796;2022-11-15T17:25:05;13.30;85.50
3069;DHT22;1545;51.728;8.796;2022-11-15T17:27:31;13.30;85.50
3069;DHT22;1545;51.728;8.796;2022-11-15T17:29:57;13.30;85.60
3069;DHT22;1545;51.728;8.796;2022-11-15T17:32:22;13.30;85.50
3069;DHT22;1545;51.728;8.796;2022-11-15T17:34:48;13.40;85.40
3069;DHT22;1545;51.728;8.796;2022-11-15T17:37:13;13.40;85.30
3069;DHT22;1545;51.728;8.796;2022-11-15T17:39:39;13.40;85.30
3069;DHT22;1545;51.728;8.796;2022-11-15T17:42:04;13.40;85.40